Time;durP1;ratioP1;P1;durP2;ratioP2;P2;SDS_P1;SDS_P2;PMS_P1;PMS_P2;Temp;Humidity;BMP_temperature;BMP_pressure;BME280_temperature;BME280_humidity;BME280_pressure;Samples;Min_cycle;Max_cycle;Signal;HPM_P1;HPM_P2
2023/08/31 04:22:34;;;;;;;13.85;5.30;;;;;;;13.47;100.00;99822.94;5130327;27;20398;-72
2023/08/31 04:24:59;;;;;;;10.07;5.28;;;;;;;13.50;100.00;99825.22;5130300;28;20047;-72
2023/08/31 04:27:24;;;;;;;8.25;4.70;;;;;;;13.51;100.00;99822.34;5130045;28;20130;-72
2023/08/31 04:29:50;;;;;;;10.45;5.30;;;;;;;13.55;100.00;99820.06;5129894;28;20119;-72
2023/08/31 04:32:15;;;;;;;11.85;5.82;;;;;;;13.57;100.00;99828.75;5130214;27;20374;-72
2023/08/31 04:34:40;;;;;;;11.93;5.68;;;;;;;13.58;100.00;99828.53;5130133;27;20040;-72
2023/08/31 04:37:06;;;;;;;10.43;5.45;;;;;;;13.61;100.00;99832.63;5130042;28;20118;-72
2023/08/31 04:39:31;;;;;;;10.00;4.80;;;;;;;13.61;100.00;99827.28;5129724;27;20039;-72
2023/08/31 04:41:56;;;;;;;6.60;3.92;;;;;;;13.64;100.00;99828.75;5128498;28;20046;-72
2023/08/31 04:44:22;;;;;;;9.32;4.55;;;;;;;13.66;100.00;99832.84;5129954;27;20052;-72
2023/08/31 04:46:47;;;;;;;6.80;4.28;;;;;;;13.67;100.00;99826.47;5129776;28;20036;-71
2023/08/31 04:49:13;;;;;;;10.80;5.47;;;;;;;13.70;100.00;99830.63;5125008;27;20075;-72
2023/08/31 04:51:39;;;;;;;8.75;4.35;;;;;;;13.72;100.00;99833.91;5129608;27;20118;-71
2023/08/31 04:54:05;;;;;;;10.40;4.68;;;;;;;13.73;100.00;99825.66;5129775;27;20469;-72
2023/08/31 04:56:32;;;;;;;9.00;4.25;;;;;;;13.75;100.00;99825.44;5129553;28;20042;-72
2023/08/31 04:58:58;;;;;;;9.50;3.80;;;;;;;13.76;100.00;99829.81;5129599;27;20462;-71
2023/08/31 05:01:24;;;;;;;13.65;4.05;;;;;;;13.79;100.00;99832.88;5129661;27;20039;-72
2023/08/31 05:03:50;;;;;;;7.53;3.88;;;;;;;13.80;100.00;99839.06;5129541;27;20035;-71
2023/08/31 05:06:15;;;;;;;7.60;3.97;;;;;;;13.81;100.00;99843.38;5129440;27;20044;-72
2023/08/31 05:08:41;;;;;;;6.40;4.47;;;;;;;13.79;100.00;99842.75;5129390;27;20074;-71
2023/08/31 05:11:06;;;;;;;8.10;4.60;;;;;;;13.83;100.00;99857.41;5129253;27;20039;-71
2023/08/31 05:13:32;;;;;;;5.82;3.75;;;;;;;13.86;100.00;99862.34;5129329;27;20042;-72
2023/08/31 05:15:57;;;;;;;6.68;3.78;;;;;;;13.84;100.00;99865.22;5129307;27;20027;-72
2023/08/31 05:18:23;;;;;;;10.40;4.40;;;;;;;13.83;100.00;99863.56;5129268;27;20431;-72
2023/08/31 05:20:48;;;;;;;7.55;3.83;;;;;;;13.88;100.00;99870.97;5128738;28;20043;-71
2023/08/31 05:23:14;;;;;;;8.85;3.38;;;;;;;13.88;100.00;99881.69;5129233;27;20047;-72
2023/08/31 05:25:46;;;;;;;9.10;3.63;;;;;;;13.89;100.00;99883.38;5129044;27;20027;-72
2023/08/31 05:28:11;;;;;;;7.18;3.83;;;;;;;13.90;100.00;99889.53;5127707;28;20126;-72
2023/08/31 05:30:45;;;;;;;8.60;4.00;;;;;;;13.89;100.00;99885.19;5128695;28;20126;-71
2023/08/31 05:33:11;;;;;;;7.18;3.38;;;;;;;13.90;100.00;99895.72;5119541;27;20031;-71
2023/08/31 05:35:36;;;;;;;6.85;3.35;;;;;;;13.89;100.00;99894.06;5115202;28;20046;-71
2023/08/31 05:38:03;;;;;;;8.70;3.92;;;;;;;13.91;100.00;99892.00;5115270;27;20043;-71
2023/08/31 05:40:28;;;;;;;8.63;3.97;;;;;;;13.95;100.00;99895.91;5114906;28;20509;-71
2023/08/31 05:42:53;;;;;;;7.40;3.65;;;;;;;13.96;100.00;99900.25;5114958;28;20031;-71
2023/08/31 05:45:19;;;;;;;9.30;4.15;;;;;;;13.99;100.00;99899.00;5115017;28;20028;-71
2023/08/31 05:47:44;;;;;;;9.40;4.30;;;;;;;13.99;100.00;99899.00;5114976;28;20518;-71
2023/08/31 05:50:10;;;;;;;4.72;3.05;;;;;;;13.99;100.00;99899.84;5114785;28;20035;-71
2023/08/31 05:52:35;;;;;;;6.25;3.75;;;;;;;14.03;100.00;99894.91;5114849;28;20050;-71
2023/08/31 05:55:00;;;;;;;6.10;3.75;;;;;;;14.06;100.00;99897.16;5114855;28;20063;-72
2023/08/31 05:57:27;;;;;;;5.68;3.92;;;;;;;14.13;100.00;99898.00;5114701;28;20032;-72
2023/08/31 05:59:53;;;;;;;6.73;3.63;;;;;;;14.17;100.00;99896.56;5114553;28;20043;-71
2023/08/31 06:02:18;;;;;;;8.02;3.28;;;;;;;14.19;100.00;99899.88;5114535;28;20043;-71
2023/08/31 06:04:44;;;;;;;8.73;4.07;;;;;;;14.27;100.00;99896.16;5114694;28;20114;-71
2023/08/31 06:07:09;;;;;;;8.30;3.70;;;;;;;14.32;100.00;99899.88;5114646;28;20383;-70
2023/08/31 06:09:34;;;;;;;7.97;3.45;;;;;;;14.38;100.00;99898.22;5114343;28;20043;-70
2023/08/31 06:12:00;;;;;;;8.13;3.80;;;;;;;14.43;100.00;99897.63;5114434;28;20069;-71
2023/08/31 06:14:25;;;;;;;4.72;3.15;;;;;;;14.53;100.00;99904.22;5114776;28;20055;-71
2023/08/31 06:16:52;;;;;;;7.75;3.17;;;;;;;14.58;100.00;99909.78;5114446;27;20035;-70
2023/08/31 06:19:17;;;;;;;7.50;4.40;;;;;;;14.63;100.00;99911.84;5114024;28;20039;-71
2023/08/31 06:21:43;;;;;;;6.43;3.20;;;;;;;14.65;100.00;99915.16;5114262;28;20031;-71
2023/08/31 06:24:12;;;;;;;7.47;3.65;;;;;;;14.75;100.00;99920.91;5114344;28;20087;-71
2023/08/31 06:26:38;;;;;;;7.97;4.88;;;;;;;14.80;100.00;99925.63;5114228;28;20044;-71
2023/08/31 06:29:04;;;;;;;9.00;3.58;;;;;;;14.85;100.00;99926.66;5113889;28;20059;-71
2023/08/31 06:31:29;;;;;;;6.22;3.67;;;;;;;14.91;100.00;99925.00;5114161;28;20039;-71
2023/08/31 06:33:55;;;;;;;5.20;3.33;;;;;;;14.97;100.00;99910.75;5114102;28;20036;-71
2023/08/31 06:36:20;;;;;;;8.85;3.97;;;;;;;15.00;100.00;99929.13;5114060;28;20486;-71
2023/08/31 06:38:46;;;;;;;7.68;3.30;;;;;;;15.09;100.00;99927.88;5113938;28;20119;-71
2023/08/31 06:41:11;;;;;;;6.90;3.50;;;;;;;15.18;100.00;99936.50;5113796;28;20116;-71
2023/08/31 06:43:37;;;;;;;7.82;3.40;;;;;;;15.22;100.00;99929.69;5113454;28;20043;-71
2023/08/31 06:46:02;;;;;;;8.18;3.30;;;;;;;15.29;100.00;99935.03;5113283;28;20071;-71
2023/08/31 06:48:27;;;;;;;6.93;3.40;;;;;;;15.29;100.00;99941.22;5113896;28;20063;-71
2023/08/31 06:50:53;;;;;;;6.95;3.65;;;;;;;15.34;100.00;99937.91;5113325;28;20520;-71
2023/08/31 06:53:18;;;;;;;8.93;3.15;;;;;;;15.27;100.00;99937.94;5113702;28;20035;-72
2023/08/31 06:55:44;;;;;;;4.43;3.17;;;;;;;15.31;100.00;99943.69;5113527;28;20486;-71
2023/08/31 06:58:09;;;;;;;9.45;4.75;;;;;;;15.31;100.00;99941.81;5113647;28;20454;-71
2023/08/31 07:00:35;;;;;;;5.85;3.15;;;;;;;15.33;100.00;99942.47;5113417;28;20035;-71
2023/08/31 07:03:00;;;;;;;6.65;3.47;;;;;;;15.38;100.00;99939.94;5113595;28;20032;-71
2023/08/31 07:05:26;;;;;;;6.28;3.10;;;;;;;15.36;100.00;99947.38;5113503;28;20438;-71
2023/08/31 07:07:54;;;;;;;5.72;3.30;;;;;;;15.41;100.00;99958.31;5113402;28;20036;-68
2023/08/31 07:10:21;;;;;;;7.55;4.45;;;;;;;15.43;100.00;99950.03;5113099;28;20035;-68
2023/08/31 07:12:46;;;;;;;6.10;3.25;;;;;;;15.46;100.00;99960.38;5113345;28;20402;-68
2023/08/31 07:15:12;;;;;;;6.65;3.17;;;;;;;15.47;100.00;99965.53;5113434;28;20040;-68
2023/08/31 07:17:37;;;;;;;6.38;3.20;;;;;;;15.52;100.00;99966.72;5113370;28;20040;-68
2023/08/31 07:20:05;;;;;;;4.75;2.72;;;;;;;15.58;100.00;99961.34;5112993;28;20031;-68
2023/08/31 07:22:34;;;;;;;4.70;3.20;;;;;;;15.52;100.00;99956.00;5113122;28;20055;-67
2023/08/31 07:25:00;;;;;;;4.57;2.65;;;;;;;15.60;100.00;99963.84;5113174;28;20047;-68
2023/08/31 07:27:25;;;;;;;5.75;3.15;;;;;;;15.68;100.00;99958.25;5113011;27;20399;-68
2023/08/31 07:29:51;;;;;;;12.23;5.47;;;;;;;15.73;100.00;99964.63;5112776;28;20035;-67
2023/08/31 07:32:16;;;;;;;7.53;3.03;;;;;;;15.73;100.00;99963.81;5112910;28;20039;-67
2023/08/31 07:34:41;;;;;;;4.85;2.42;;;;;;;15.74;100.00;99976.19;5113023;28;20046;-68
2023/08/31 07:37:07;;;;;;;7.30;2.92;;;;;;;15.78;100.00;99965.84;5112734;28;20032;-68
2023/08/31 07:39:32;;;;;;;7.18;2.28;;;;;;;15.87;100.00;99969.94;5112587;28;20038;-68
2023/08/31 07:41:59;;;;;;;5.13;2.40;;;;;;;15.89;100.00;99971.34;5112843;28;20047;-68
2023/08/31 07:44:24;;;;;;;5.60;2.47;;;;;;;15.98;100.00;99972.78;5111606;28;20043;-68
2023/08/31 07:46:50;;;;;;;5.25;2.38;;;;;;;16.05;100.00;99979.97;5112696;28;20028;-68
2023/08/31 07:49:15;;;;;;;4.25;2.67;;;;;;;16.12;100.00;99989.63;5112495;28;20039;-67
2023/08/31 07:51:41;;;;;;;3.47;2.33;;;;;;;16.18;100.00;99994.16;5112689;28;20035;-68
2023/08/31 07:54:06;;;;;;;2.70;2.20;;;;;;;16.22;100.00;99992.66;5112500;28;20039;-67
2023/08/31 07:56:32;;;;;;;3.58;2.13;;;;;;;16.35;100.00;99996.31;5112261;28;20039;-68
2023/08/31 07:58:58;;;;;;;3.75;2.05;;;;;;;16.37;100.00;99992.38;5112460;28;20196;-68
2023/08/31 08:01:23;;;;;;;3.30;1.85;;;;;;;16.41;100.00;99993.59;5112235;28;20039;-68
2023/08/31 08:03:49;;;;;;;3.28;2.22;;;;;;;16.49;100.00;99998.69;5112585;28;20027;-68
2023/08/31 08:06:14;;;;;;;3.72;2.15;;;;;;;16.64;100.00;100005.63;5112427;28;20379;-68
2023/08/31 08:08:40;;;;;;;6.07;1.90;;;;;;;16.76;99.67;100001.22;5112303;28;20082;-68
2023/08/31 08:11:05;;;;;;;2.75;1.92;;;;;;;16.85;100.00;100004.47;5112120;28;20054;-68
2023/08/31 08:13:30;;;;;;;3.47;1.60;;;;;;;16.87;96.35;100011.25;5112519;28;20482;-68
2023/08/31 08:15:56;;;;;;;5.70;2.17;;;;;;;16.92;94.37;100007.91;5112395;28;20065;-68
2023/08/31 08:18:21;;;;;;;3.83;1.90;;;;;;;16.99;97.37;100000.59;5112398;28;20031;-68
2023/08/31 08:20:48;;;;;;;4.28;1.90;;;;;;;17.06;94.58;99996.81;5111944;28;20027;-68
2023/08/31 08:23:13;;;;;;;3.50;1.98;;;;;;;17.25;90.55;100005.72;5112366;28;20192;-68
2023/08/31 08:25:38;;;;;;;5.00;2.05;;;;;;;17.41;92.48;100004.34;5112318;28;20043;-67
2023/08/31 08:28:04;;;;;;;3.80;1.50;;;;;;;17.58;88.54;100010.75;5112290;28;20040;-68
2023/08/31 08:30:29;;;;;;;4.78;2.38;;;;;;;17.64;85.96;100011.75;5111986;28;20099;-67
2023/08/31 08:32:55;;;;;;;4.57;1.85;;;;;;;17.72;88.32;100021.41;5112271;28;20044;-68
2023/08/31 08:35:20;;;;;;;2.85;1.67;;;;;;;17.79;87.73;100017.59;5112090;28;20421;-68
2023/08/31 08:37:46;;;;;;;2.53;1.50;;;;;;;17.69;80.19;100019.97;5112195;28;20490;-68
2023/08/31 08:40:11;;;;;;;4.43;1.77;;;;;;;17.80;81.86;100029.19;5111883;28;20040;-67
2023/08/31 08:42:41;;;;;;;4.22;1.60;;;;;;;17.79;78.44;100016.75;5112135;28;20102;-68
2023/08/31 08:45:12;;;;;;;3.58;1.73;;;;;;;17.94;73.80;100022.59;5112026;28;20486;-68
2023/08/31 08:47:39;;;;;;;2.85;1.50;;;;;;;18.11;74.63;100018.22;5110961;28;20409;-68
2023/08/31 08:50:05;;;;;;;2.85;1.73;;;;;;;17.97;72.70;100021.31;5111678;28;20405;-68
2023/08/31 08:52:31;;;;;;;2.38;1.40;;;;;;;18.02;75.30;100019.59;5111879;28;20063;-68
2023/08/31 08:54:57;;;;;;;4.30;1.67;;;;;;;18.06;77.73;100025.34;5111940;28;20043;-68
2023/08/31 08:57:23;;;;;;;6.80;2.13;;;;;;;18.17;73.84;100028.09;5111981;28;20044;-68
2023/08/31 08:59:48;;;;;;;3.50;1.58;;;;;;;18.25;68.48;100018.03;5111710;28;20081;-68
2023/08/31 09:02:14;;;;;;;5.93;1.88;;;;;;;18.31;75.06;100025.22;5112110;28;20028;-68
2023/08/31 09:04:39;;;;;;;3.60;1.45;;;;;;;18.34;74.36;100030.97;5111962;28;20031;-68
2023/08/31 09:07:05;;;;;;;3.17;1.70;;;;;;;18.49;72.32;100033.25;5111825;28;20054;-68
2023/08/31 09:09:30;;;;;;;3.90;1.80;;;;;;;18.44;70.20;100035.81;5115438;28;20031;-68
2023/08/31 09:11:55;;;;;;;4.55;1.77;;;;;;;18.55;71.83;100029.63;5115654;28;20494;-68
2023/08/31 09:14:21;;;;;;;2.10;1.33;;;;;;;18.78;65.89;100033.44;5115658;28;20541;-68
2023/08/31 09:16:49;;;;;;;3.15;1.40;;;;;;;18.84;67.53;100029.81;5115582;28;20054;-68
2023/08/31 09:19:24;;;;;;;;;;;;;;;18.94;69.31;100027.38;5115746;28;20653;-68
2023/08/31 09:21:52;;;;;;;2.83;1.63;;;;;;;19.13;73.66;100036.22;5115611;28;19911;-68
2023/08/31 09:24:18;;;;;;;4.50;1.80;;;;;;;19.11;68.14;100033.75;5115548;28;20031;-68
2023/08/31 09:26:48;;;;;;;3.17;1.55;;;;;;;19.17;70.04;100038.22;5115431;28;20043;-68
2023/08/31 09:29:13;;;;;;;3.13;1.92;;;;;;;19.01;66.84;100021.88;5115147;28;20039;-68
2023/08/31 09:31:44;;;;;;;4.05;1.98;;;;;;;19.13;73.78;100031.63;5115263;28;20027;-69
2023/08/31 09:34:09;;;;;;;2.80;1.50;;;;;;;19.33;65.89;100025.06;5115219;28;20486;-69
2023/08/31 09:36:36;;;;;;;2.80;1.30;;;;;;;19.44;66.14;100026.94;5115211;28;20027;-69
2023/08/31 09:39:02;;;;;;;3.72;1.48;;;;;;;19.73;69.80;100027.84;5115146;28;20405;-68
2023/08/31 09:41:27;;;;;;;4.28;1.55;;;;;;;19.90;65.70;100031.44;5115181;28;20024;-68
2023/08/31 09:43:52;;;;;;;4.20;1.70;;;;;;;20.06;63.56;100019.03;5115160;28;20447;-69
2023/08/31 09:46:19;;;;;;;2.05;1.08;;;;;;;19.95;61.51;100033.41;5115024;28;20035;-69
2023/08/31 09:48:46;;;;;;;5.50;1.55;;;;;;;19.71;60.09;100027.28;5114849;28;20044;-69
2023/08/31 09:51:14;;;;;;;5.22;1.83;;;;;;;19.74;61.84;100032.19;5114705;28;20042;-69
2023/08/31 09:53:41;;;;;;;3.40;1.70;;;;;;;19.92;62.34;100023.09;5115031;28;20027;-68
2023/08/31 09:56:07;;;;;;;3.45;1.58;;;;;;;20.03;63.07;100031.16;5114857;28;20042;-68
2023/08/31 09:58:33;;;;;;;3.00;1.60;;;;;;;20.14;60.59;100026.75;5114871;28;20490;-68
2023/08/31 10:00:59;;;;;;;4.55;1.65;;;;;;;20.58;60.96;100029.78;5114622;28;20031;-68
2023/08/31 10:03:26;;;;;;;4.93;1.75;;;;;;;20.99;59.99;100033.16;5114761;28;20046;-69
2023/08/31 10:05:53;;;;;;;5.32;1.70;;;;;;;21.00;55.09;100013.16;5114750;28;20024;-69
2023/08/31 10:08:19;;;;;;;4.10;1.40;;;;;;;21.02;57.17;100021.84;5114756;28;20042;-69
2023/08/31 10:10:45;;;;;;;3.47;1.60;;;;;;;21.37;54.11;100022.38;5114382;28;20035;-68
2023/08/31 10:13:11;;;;;;;6.75;1.90;;;;;;;21.30;52.05;100026.34;5114671;28;20031;-69
2023/08/31 10:15:37;;;;;;;3.50;1.67;;;;;;;21.24;53.68;100016.47;5114461;28;20118;-69
2023/08/31 10:18:04;;;;;;;2.55;1.52;;;;;;;21.19;54.24;100027.22;5114321;28;20123;-69
2023/08/31 10:20:31;;;;;;;3.35;1.30;;;;;;;21.09;53.75;100026.00;5114195;28;20035;-68
2023/08/31 10:22:58;;;;;;;3.78;1.95;;;;;;;20.98;53.35;100031.50;5114441;28;20115;-69
2023/08/31 10:25:23;;;;;;;4.97;2.17;;;;;;;20.74;53.63;100020.03;5114322;28;20040;-68
2023/08/31 10:27:52;;;;;;;3.42;1.50;;;;;;;20.42;55.77;100017.03;5114331;28;20636;-68
2023/08/31 10:30:21;;;;;;;2.65;1.60;;;;;;;20.41;55.08;100032.44;5114004;28;20122;-69
2023/08/31 10:32:47;;;;;;;2.17;1.50;;;;;;;20.58;55.74;100030.59;5114106;28;20043;-69
2023/08/31 10:35:12;;;;;;;4.65;2.20;;;;;;;20.45;55.61;100049.84;5114240;28;20046;-68
2023/08/31 10:37:40;;;;;;;6.40;1.75;;;;;;;20.49;53.79;100042.06;5114199;28;20126;-69
2023/08/31 10:40:11;;;;;;;;;;;;;;;20.15;53.79;100033.84;5114289;28;20036;-69
2023/08/31 10:42:44;;;;;;;3.65;1.40;;;;;;;20.11;54.88;100034.56;5114696;28;19912;-69
2023/08/31 10:45:10;;;;;;;2.80;1.30;;;;;;;19.83;56.69;100028.06;5113825;28;20110;-68
2023/08/31 10:47:40;;;;;;;12.02;1.77;;;;;;;20.01;56.44;100035.16;5112613;28;20150;-68
2023/08/31 10:50:17;;;;;;;7.63;2.22;;;;;;;19.95;56.69;100036.13;5113660;28;20044;-69
2023/08/31 10:52:48;;;;;;;3.17;1.50;;;;;;;20.09;54.51;100026.69;5113774;28;20474;-69
2023/08/31 10:55:13;;;;;;;3.25;1.88;;;;;;;20.28;53.17;100027.31;5113634;28;20451;-68
2023/08/31 10:57:40;;;;;;;5.30;1.58;;;;;;;20.70;51.63;100025.13;5113737;28;20122;-68
2023/08/31 11:00:07;;;;;;;5.25;1.50;;;;;;;21.27;52.88;100027.66;5113403;28;20048;-68
2023/08/31 11:02:44;;;;;;;2.50;1.48;;;;;;;22.01;50.72;100013.72;5113633;28;20102;-70
2023/08/31 11:05:16;;;;;;;6.27;1.63;;;;;;;22.65;53.40;100018.47;5112318;28;20486;-68
2023/08/31 11:07:47;;;;;;;4.43;1.65;;;;;;;23.08;47.96;100008.50;5113487;28;20405;-67
2023/08/31 11:10:14;;;;;;;4.63;2.80;;;;;;;23.20;46.36;100007.22;5113221;27;20040;-67
2023/08/31 11:12:41;;;;;;;4.60;1.85;;;;;;;23.01;49.65;100006.00;5113459;28;20105;-68
2023/08/31 11:15:07;;;;;;;2.38;1.60;;;;;;;23.05;50.22;100020.72;5113312;28;20031;-67
2023/08/31 11:17:33;;;;;;;3.03;1.45;;;;;;;22.72;48.34;100016.34;5113347;28;20420;-68
2023/08/31 11:19:59;;;;;;;2.47;1.50;;;;;;;22.33;50.56;100030.09;5113062;28;20111;-68
2023/08/31 11:22:25;;;;;;;2.97;1.45;;;;;;;21.95;50.29;100023.69;5112917;28;20414;-68
2023/08/31 11:24:51;;;;;;;4.57;1.77;;;;;;;22.14;49.45;100020.66;5113200;28;20051;-68
2023/08/31 11:27:20;;;;;;;3.38;1.63;;;;;;;22.13;48.42;100013.59;5113018;28;20039;-68
2023/08/31 11:29:46;;;;;;;2.65;1.60;;;;;;;22.15;49.10;100008.75;5112560;28;20046;-67
2023/08/31 11:32:11;;;;;;;4.85;1.88;;;;;;;22.07;49.60;100007.28;5112609;28;20040;-68
2023/08/31 11:34:44;;;;;;;5.95;2.10;;;;;;;22.06;47.98;100008.34;5112980;28;20031;-69
2023/08/31 11:37:19;;;;;;;2.45;1.40;;;;;;;22.33;48.82;100005.69;5112843;28;20035;-67
2023/08/31 11:39:51;;;;;;;3.00;1.50;;;;;;;22.98;46.63;99990.25;5112141;28;20478;-68
2023/08/31 11:42:19;;;;;;;2.90;1.70;;;;;;;23.71;44.49;99998.56;5112412;28;20031;-68
2023/08/31 11:44:47;;;;;;;6.35;2.00;;;;;;;23.70;43.76;100002.38;5109987;28;20030;-67
2023/08/31 11:47:14;;;;;;;3.25;1.60;;;;;;;23.08;45.88;99993.00;5112431;28;20489;-69
2023/08/31 11:49:41;;;;;;;3.35;1.60;;;;;;;23.57;45.62;100006.34;5110988;28;20057;-68
2023/08/31 11:52:11;;;;;;;5.43;1.52;;;;;;;24.24;46.00;99983.75;5110960;28;20031;-68
2023/08/31 11:54:43;;;;;;;2.67;1.35;;;;;;;24.89;43.27;99989.53;5112600;28;20043;-67
2023/08/31 11:57:10;;;;;;;3.30;1.60;;;;;;;24.41;44.22;99996.34;5110259;28;20102;-67
2023/08/31 11:59:36;;;;;;;2.88;1.52;;;;;;;23.82;46.68;99973.84;5112103;28;20597;-69
2023/08/31 12:02:05;;;;;;;2.67;1.45;;;;;;;23.82;44.78;99983.91;5112210;28;20084;-67
2023/08/31 12:04:31;;;;;;;2.75;1.40;;;;;;;23.28;47.36;99989.63;5112382;28;20064;-67
2023/08/31 12:07:06;;;;;;;3.55;1.55;;;;;;;22.93;46.36;99985.59;5112047;28;20510;-67
2023/08/31 12:09:32;;;;;;;4.40;2.10;;;;;;;22.51;47.43;99992.81;5110164;28;20040;-68
2023/08/31 12:11:57;;;;;;;2.97;1.73;;;;;;;22.70;47.38;99988.66;5112257;28;20046;-67
2023/08/31 12:14:25;;;;;;;4.68;2.85;;;;;;;23.54;47.26;99983.25;5112189;28;20055;-68
2023/08/31 12:16:52;;;;;;;5.45;1.90;;;;;;;23.23;45.31;99986.88;5109591;28;20024;-69
2023/08/31 12:19:18;;;;;;;3.95;1.33;;;;;;;23.22;45.60;99983.34;5110720;28;20063;-70
2023/08/31 12:21:45;;;;;;;3.97;1.50;;;;;;;23.21;45.99;99970.00;5111942;28;20024;-69
2023/08/31 12:24:11;;;;;;;3.88;1.88;;;;;;;23.18;46.42;99976.78;5109605;28;20118;-69
2023/08/31 12:26:37;;;;;;;4.20;1.60;;;;;;;23.27;44.66;99983.34;5111901;28;20095;-69
2023/08/31 12:29:06;;;;;;;3.90;2.08;;;;;;;23.21;44.01;99986.31;5111497;28;20497;-69
2023/08/31 12:31:32;;;;;;;5.13;1.60;;;;;;;23.43;43.13;99978.03;5109485;28;20085;-69
2023/08/31 12:34:00;;;;;;;4.50;2.47;;;;;;;23.88;42.93;99982.03;5111919;28;20421;-69
2023/08/31 12:36:28;;;;;;;3.13;1.52;;;;;;;23.78;43.78;99982.81;5093967;28;20070;-69
2023/08/31 12:38:54;;;;;;;2.80;1.48;;;;;;;23.07;43.67;99987.84;5110855;28;20032;-69
2023/08/31 12:41:20;;;;;;;3.95;1.70;;;;;;;23.07;43.80;99987.84;5111993;28;20089;-69
2023/08/31 12:43:45;;;;;;;4.30;1.63;;;;;;;22.92;44.37;99985.84;5115092;28;20056;-69
2023/08/31 12:46:13;;;;;;;2.58;1.30;;;;;;;22.58;45.24;99991.53;5116161;28;20039;-69
2023/08/31 12:48:39;;;;;;;3.30;1.50;;;;;;;21.99;46.14;99990.66;5115945;28;20062;-69
2023/08/31 12:51:04;;;;;;;2.75;1.65;;;;;;;21.63;48.09;99979.38;5115865;28;20040;-69
2023/08/31 12:53:30;;;;;;;2.38;1.58;;;;;;;21.34;48.76;99982.25;5114910;28;20038;-69
2023/08/31 12:55:55;;;;;;;2.58;1.50;;;;;;;20.92;49.44;99983.78;5116025;28;20062;-70
2023/08/31 12:58:21;;;;;;;4.50;1.65;;;;;;;20.85;49.97;99984.75;5114694;28;20041;-70
2023/08/31 13:00:49;;;;;;;3.00;1.30;;;;;;;20.82;52.24;99987.97;5115675;28;20541;-70
2023/08/31 13:03:15;;;;;;;4.00;1.70;;;;;;;20.66;52.98;99988.78;5115872;28;20095;-70
2023/08/31 13:05:41;;;;;;;3.42;1.45;;;;;;;20.55;52.37;99989.69;5115901;28;20475;-69
2023/08/31 13:08:08;;;;;;;2.55;1.50;;;;;;;20.75;52.90;99992.72;5115833;28;20055;-69
2023/08/31 13:10:34;;;;;;;2.45;1.33;;;;;;;20.71;52.15;99986.16;5115333;28;20036;-69
2023/08/31 13:13:00;;;;;;;3.20;1.60;;;;;;;20.87;51.64;99987.22;5116174;28;20039;-69
2023/08/31 13:15:25;;;;;;;3.22;1.60;;;;;;;20.77;51.46;99987.06;5115483;28;20122;-71
2023/08/31 13:17:51;;;;;;;3.75;1.48;;;;;;;20.79;51.98;99984.91;5114400;28;20138;-71
2023/08/31 13:20:16;;;;;;;3.75;1.70;;;;;;;20.74;53.32;99982.16;5115216;28;20365;-71
2023/08/31 13:22:42;;;;;;;2.33;1.35;;;;;;;20.62;54.06;99993.06;5114377;28;20042;-71
2023/08/31 13:25:07;;;;;;;2.58;1.60;;;;;;;20.61;54.04;99985.19;5115400;28;20035;-71
2023/08/31 13:27:33;;;;;;;3.65;1.50;;;;;;;20.55;54.33;99990.50;5115411;28;20045;-70
2023/08/31 13:29:58;;;;;;;6.35;1.98;;;;;;;20.53;55.38;99991.81;5115185;28;20032;-71
2023/08/31 13:32:24;;;;;;;3.50;1.50;;;;;;;20.41;54.71;99991.00;5115419;28;20666;-71
2023/08/31 13:34:50;;;;;;;5.15;1.50;;;;;;;20.27;54.59;99988.59;5115539;28;20453;-71
2023/08/31 13:37:15;;;;;;;2.05;1.38;;;;;;;20.20;55.00;99981.72;5115290;28;20047;-72
2023/08/31 13:39:40;;;;;;;4.97;1.85;;;;;;;20.08;54.86;99975.53;5114851;28;20067;-71
2023/08/31 13:42:06;;;;;;;4.05;1.60;;;;;;;20.16;55.36;99981.41;5114053;28;20401;-71
2023/08/31 13:44:32;;;;;;;4.47;1.65;;;;;;;20.11;55.01;99986.72;5115157;28;20035;-71
2023/08/31 13:46:57;;;;;;;2.50;1.38;;;;;;;20.01;55.61;99983.78;5115119;28;20039;-71
2023/08/31 13:49:23;;;;;;;3.03;1.50;;;;;;;20.06;56.76;99983.91;5114868;28;20035;-71
2023/08/31 13:51:48;;;;;;;4.35;1.50;;;;;;;20.09;57.90;99986.13;5113693;28;20040;-71
2023/08/31 13:54:14;;;;;;;5.68;2.00;;;;;;;20.00;55.75;99982.16;5114518;28;20106;-69
2023/08/31 13:56:39;;;;;;;4.18;1.40;;;;;;;19.91;56.57;99987.13;5114785;28;20139;-71
2023/08/31 13:59:05;;;;;;;2.35;1.65;;;;;;;20.02;56.42;99980.88;5114434;28;20040;-71
2023/08/31 14:01:30;;;;;;;2.97;1.38;;;;;;;20.07;57.71;99982.84;5114825;28;20039;-70
2023/08/31 14:03:56;;;;;;;5.85;1.70;;;;;;;20.12;58.41;99982.94;5114861;28;20040;-71
2023/08/31 14:06:21;;;;;;;3.83;1.75;;;;;;;20.10;56.88;99978.84;5114728;28;20047;-70
2023/08/31 14:08:46;;;;;;;3.28;1.50;;;;;;;20.08;57.88;99981.75;5114600;28;20039;-70
2023/08/31 14:11:13;;;;;;;3.80;1.40;;;;;;;20.02;58.14;99975.47;5114291;28;20040;-71
2023/08/31 14:13:38;;;;;;;6.07;2.00;;;;;;;20.13;59.25;99971.06;5114627;28;20092;-71
2023/08/31 14:16:04;;;;;;;4.60;1.70;;;;;;;20.10;58.11;99971.56;5114440;28;20074;-71
2023/08/31 14:18:31;;;;;;;5.13;1.73;;;;;;;20.19;56.24;99977.38;5114480;28;20031;-71
2023/08/31 14:20:58;;;;;;;4.50;1.73;;;;;;;20.28;56.58;99978.66;5114143;28;20042;-70
2023/08/31 14:23:24;;;;;;;3.58;1.90;;;;;;;20.38;57.78;99967.16;5114460;28;20394;-70
2023/08/31 14:25:49;;;;;;;4.65;1.70;;;;;;;20.50;58.21;99971.47;5114214;28;20046;-70
2023/08/31 14:28:15;;;;;;;4.68;1.55;;;;;;;20.62;55.84;99973.28;5114233;28;20073;-69
2023/08/31 14:30:40;;;;;;;3.65;1.80;;;;;;;20.75;54.84;99973.78;5113962;28;20067;-70
2023/08/31 14:33:06;;;;;;;3.88;1.48;;;;;;;20.88;57.23;99972.63;5114089;28;20062;-70
2023/08/31 14:35:31;;;;;;;2.92;1.30;;;;;;;20.95;56.32;99975.16;5114055;28;20435;-69
2023/08/31 14:37:58;;;;;;;3.70;2.05;;;;;;;21.03;56.75;99975.56;5114119;28;20089;-69
2023/08/31 14:40:23;;;;;;;6.47;1.48;;;;;;;21.03;59.86;99975.56;5113878;28;20032;-70
2023/08/31 14:42:49;;;;;;;4.10;1.90;;;;;;;21.07;59.53;99982.13;5114055;28;20428;-70
2023/08/31 14:45:14;;;;;;;4.57;1.60;;;;;;;21.12;58.21;99986.78;5113854;28;20043;-71
2023/08/31 14:47:40;;;;;;;3.30;1.63;;;;;;;21.00;62.08;99991.50;5113870;28;20039;-70
2023/08/31 14:50:05;;;;;;;4.28;1.83;;;;;;;20.93;60.33;99988.09;5113644;28;20035;-70
2023/08/31 14:52:31;;;;;;;3.33;1.83;;;;;;;20.63;59.08;99993.88;5113872;28;20549;-69
2023/08/31 14:54:56;;;;;;;5.18;1.85;;;;;;;20.52;57.60;99995.56;5113711;28;20068;-70
2023/08/31 14:57:22;;;;;;;4.85;1.60;;;;;;;20.35;59.55;99994.72;5113580;28;20518;-70
2023/08/31 14:59:47;;;;;;;4.20;1.60;;;;;;;20.28;59.68;99989.47;5112173;28;20490;-70
2023/08/31 15:02:14;;;;;;;4.78;1.90;;;;;;;20.13;59.93;99989.16;5113627;28;20050;-70
2023/08/31 15:04:40;;;;;;;4.32;1.60;;;;;;;20.03;60.70;99997.91;5113199;28;20069;-70
2023/08/31 15:07:05;;;;;;;3.33;1.70;;;;;;;20.04;60.56;100004.97;5113045;28;20039;-69
2023/08/31 15:09:31;;;;;;;4.47;1.98;;;;;;;19.98;60.60;100006.72;5113118;28;20035;-69
2023/08/31 15:11:56;;;;;;;2.97;1.50;;;;;;;19.93;59.86;100003.94;5112944;28;20038;-69
2023/08/31 15:14:21;;;;;;;5.97;2.55;;;;;;;19.87;61.47;99998.66;5112997;28;20047;-70
2023/08/31 15:16:47;;;;;;;3.83;1.77;;;;;;;19.82;62.11;99995.84;5094745;28;20036;-70
2023/08/31 15:19:12;;;;;;;3.63;1.67;;;;;;;19.83;61.55;99997.53;5112683;28;20438;-69
2023/08/31 15:21:38;;;;;;;3.45;1.85;;;;;;;19.79;62.17;99995.28;5112793;28;20086;-69
2023/08/31 15:24:03;;;;;;;4.20;1.98;;;;;;;19.75;62.53;99998.69;5111572;28;20050;-69
2023/08/31 15:26:29;;;;;;;4.90;2.20;;;;;;;19.70;63.34;99994.03;5112433;28;20110;-70
2023/08/31 15:28:54;;;;;;;5.70;2.05;;;;;;;19.78;62.99;99985.53;5112740;28;20040;-69
2023/08/31 15:31:20;;;;;;;3.78;1.98;;;;;;;19.83;63.80;99984.00;5112479;28;20032;-72
2023/08/31 15:33:45;;;;;;;3.58;1.73;;;;;;;19.80;62.94;99977.19;5112577;28;20128;-72
2023/08/31 15:36:11;;;;;;;3.38;1.67;;;;;;;19.93;62.82;99976.91;5112691;28;20489;-71
2023/08/31 15:38:37;;;;;;;4.70;1.60;;;;;;;20.08;63.58;99979.06;5112513;28;20490;-71
2023/08/31 15:41:05;;;;;;;3.13;1.75;;;;;;;20.25;63.29;99971.81;5112312;28;20035;-71
2023/08/31 15:43:32;;;;;;;5.47;1.80;;;;;;;20.33;63.16;99979.53;5109949;28;20440;-72
2023/08/31 15:46:01;;;;;;;2.90;1.77;;;;;;;20.42;62.85;99985.38;5112449;28;20055;-72